Burneyville, OK (73430)

8:15 PM CST on December 08, 2016 (GMT -0600)
Bulcher | | Change Station

Elev 850 ft 33.80 °N, 97.42 °W | Updated 2 seconds ago

Partly Cloudy
Partly Cloudy
28.1 °F
Feels Like 28 °F
N
0.0
Wind Variable Wind from NW
Gusts 0.0 mph

Today
High -- | Low -- °F
--% Chance of Precip.
Yesterday
High -- | Low -- °F
Precip. -- in
Pressure 30.68 in
Visibility 10.0 miles
Clouds Clear
Windchill 28 °F
Dew Point 14 °F
Humidity 59%
Rainfall 0.00 in
Snow Depth Not available.
7:22 AM 5:20 PM
Waxing Gibbous, 69% visible
METAR KGLE 090155Z AUTO 33004KT 10SM CLR M02/M10 A3068 RMK AO2 T10251103
Pressure 30.68 in
Visibility 10.0 miles
Clouds Clear
Windchill 28 °F
Dew Point 14 °F
Humidity 59%
Rainfall 0.00 in
Snow Depth Not available.
7:22 AM 5:20 PM
Waxing Gibbous, 69% visible
METAR KGLE 090155Z AUTO 33004KT 10SM CLR M02/M10 A3068 RMK AO2 T10251103

10-Day Weather Forecast

Almanac

Astronomy

Dec. 08, 2016 Rise Set
Actual Time
Civil Twilight
Nautical Twilight
Astronomical Twilight
Moon
Length of Visible Light
Length of Day
Tomorrow will be .
, % of the Moon is Illuminated

Today's Extremes

State Highs State Lows

Community

WunderPhotos

Upload Photos

1,956,351 photos uploaded!

WunderBlog® & News

Nearby

Air Quality

  Air Quality AQ Index Pollutant
Not available.

Snow Depth

Station Depth Elevation

Earthquake Activity

City Distance Mag. Time & Date
Minimum magnitude displayed is 2.5.

Coastal Water Temperatures

Place Temperature

Stations

Nearby Weather Stations

Station Location Temp. Windchill Dew Point Humidity Wind Precip. Elev Updated Type
                   

Watches & Warnings

There are currently no watches in effect.